Ana Sayfa
METAR-TAF:

METAR-TAF

Havaalanları :

Sedalia, Missouri, Amerika Birleşik Devletleri

Enlem: 38-42-44N, Boylam: 093-10-28W, yükseklik: 277 m

Güncel hava durumu gözlemi

Rapor saat 10:53 UTC de 1 saat ve 1 dakika önce yapıldı.
Rüzgar doğudan 3 kt
Sıcaklık 15°C
Nem 88%
Basınç 1012 hPa
Görüş mesafesi: 16.1 km
4400 ft yükseklikte çok bulutlu

METAR: KDMO 231053Z AUTO 08003KT 10SM OVC044 15/13 A2989 RMK AO2 SLP117 T01500128

Saat: 06:54 (11:54 UTC)


TAF: eksik

4.000'den fazla havaalanı için hava durumu gözlemleri ve tahminleri (METAR ve TAF raporları).

Kullanılabilir istasyonlar harita üzerinde sarı ve kırmızı noktalarla gösterilir.

İstasyonun adını görmek için fareyi noktanın üzerinde gezdirin.

Sonrasında hava gözlem ve tahminlerini görmek için tıklayın.

Haritayı değiştirmek için: yaklaştırmak için siyah artı işaretli yeşil düğmeye ve uzaklaştırmak için de eksi işaretli düğmeye hızla tıklayın; bitişik haritalar için yeşil okları kullanın.


METAR-TAF: